Severy, KS

8:00 AM CDT on July 13, 2014 (GMT -0500)
HADS FALL RIVER LAKE NEAR FALL RIVER KS US USARMY-COE (MFLLK1) Elev 1020 ft | 37.65 °N, 96.08 °W | Change Station

Current weather conditions updated 60 minutes ago

Clear
Clear
76 °F
Feels Like 78 °F
N
3
Wind Variable Wind from SE
Gusts 0.0 mph

Today is forecast to be Cooler than yesterday.

Today
High -- | Low -- °F
--% Chance of Precip.
Yesterday
High -- | Low -- °F
Precip. -- in
6:14 AM 8:47 PM
Full, 98% visible
Pressure 30.00 in
Visibility 10.0 miles
Clouds Clear
Heat Index 78 °F
Dew Point 66 °F
Humidity 72%
Rainfall 0.00 in
Snow Depth Not available.
UV 1 out of 12
Pollen 3.70 out of 12
Air Quality Not available.
Flu Activity No Activity
METAR KCNU 131252Z AUTO 10004KT 10SM CLR 22/17 A3004 RMK AO2 SLP159 T02220172

More Conditions Fewer Conditions

Pressure 30.00 in
Visibility 10.0 miles
Clouds Clear
Heat Index 78 °F
Dew Point 66 °F
Humidity 72%
Rainfall 0.00 in
Snow Depth Not available.
UV 1 out of 12
Pollen 3.70 out of 12
Air Quality Not available.
Flu Activity No Activity
METAR KCNU 131252Z AUTO 10004KT 10SM CLR 22/17 A3004 RMK AO2 SLP159 T02220172

More Conditions Fewer Conditions

10-Day Weather Forecast

Almanac

Astronomy

Jul. 13, 2014 Rise Set
Actual Time 6:14 AM CDT 8:47 PM CDT
Civil Twilight 5:43 AM CDT 9:17 PM CDT
Nautical Twilight 5:05 AM CDT 9:55 PM CDT
Astronomical Twilight 4:23 AM CDT 10:37 PM CDT
Moon 9:39 PM CDT 7:43 AM CDT
Length of Visible Light 15h 33m
Length of Day
14h 33m
Tomorrow will be 1m 10s shorter.
Full, 98% of the Moon is Illuminated
Today
Full
Jul 18
Last Quarter
Jul 26
New
Aug 3
First Quarter
Aug 10
Full

Today's Extremes

State Highs State Lows

Community

WunderPhotos

Upload Photos

1,733,169 photos uploaded!

Nearby

Snow Depth

Station Depth Elevation
No new snow has been reported.

Earthquake Activity

City Distance Mag. Time & Date
Helena, Oklahoma 122 miles 3.0 2:44 AM CDT
2014-07-07
Perkins, Oklahoma 122 miles 2.6 10:56 PM CDT
2014-07-06
Cherokee, Oklahoma 116 miles 2.5 10:52 PM CDT
2014-07-06
Stillwater, Oklahoma 116 miles 2.5 7:38 PM CDT
2014-07-06
Minimum magnitude displayed is 2.5.

Coastal Water Temperatures

Place Temperature
No Stations Reporting

Nearby Weather Stations

Station Location Temp. Heat Index Dew Point Humidity Wind Precip. Elev Updated Type
HADS FALL RIVER LAKE NEAR FALL RIVER KS, Fall River, KS 76 °F 78 °F 66 °F 72% SE  at  3 mph 0.00 in / hr 1020 ft 7:00 AM CDT MADIS
HADS VERDIGRIS RIVER AT TORONTO KS, Toronto, KS 74 °F 76 °F 61 °F 64% NE  at  3 mph 0.00 in / hr 960 ft 6:30 AM CDT MADIS

Show More Stations Show Fewer Stations